sim
Sign-in with your pilot id or email,
or register
Callsign
Passwort

Schedule Details

Flight Number: OEO7995
Departure: Seattle Tacoma International Airport (KSEA) at 22:15
Arrival: Munich Airport (EDDM) at 08:40

Weather Information
Getting current METAR information for KSEA 250353Z 15008KT 10SM FEW038 SCT150 BKN250 16/13 A2995 RMK AO2 SLP149 T01560128
Getting current METAR information for EDDM 250350Z 21005KT 9999 -RA SCT040 13/12 Q1001 NOSIG

Schedule Frequency

Route Map